createdAt,value
2022-07-30T00:06:47.333Z,14.36
2022-07-30T00:16:47.584Z,14.36
2022-07-30T00:26:47.749Z,14.70
2022-07-30T00:36:47.952Z,14.53
2022-07-30T00:46:48.176Z,14.36
2022-07-30T00:56:48.320Z,15.17
2022-07-30T01:06:48.557Z,14.19
2022-07-30T01:16:48.850Z,15.00
2022-07-30T01:26:48.932Z,15.17
2022-07-30T01:36:49.163Z,14.19
2022-07-30T01:46:49.388Z,14.36
2022-07-30T01:56:49.623Z,14.19
2022-07-30T02:06:49.723Z,15.17
2022-07-30T02:16:49.900Z,14.19
2022-07-30T02:26:50.011Z,15.00
2022-07-30T02:36:50.051Z,14.19
2022-07-30T02:46:50.332Z,14.36
2022-07-30T02:56:50.563Z,14.53
2022-07-30T03:06:50.624Z,14.53
2022-07-30T03:16:50.851Z,14.53
2022-07-30T03:26:50.913Z,14.53
2022-07-30T03:36:51.129Z,14.36
2022-07-30T03:46:51.393Z,14.36
2022-07-30T03:56:51.685Z,14.36
2022-07-30T04:06:52.087Z,14.36
2022-07-30T04:16:51.985Z,14.19
2022-07-30T04:26:52.046Z,14.19
2022-07-30T04:36:52.253Z,14.36
2022-07-30T04:46:52.518Z,14.36
2022-07-30T04:56:54.007Z,14.36
2022-07-30T05:06:52.800Z,15.00
2022-07-30T05:16:53.054Z,14.64
2022-07-30T05:26:53.339Z,14.82
2022-07-30T05:36:53.387Z,15.00
2022-07-30T05:46:53.448Z,15.17
2022-07-30T05:56:53.703Z,15.00
2022-07-30T06:06:53.945Z,15.00
2022-07-30T06:16:54.343Z,14.64
2022-07-30T06:26:54.382Z,14.46
2022-07-30T06:36:54.549Z,15.44
2022-07-30T06:46:54.785Z,14.46
2022-07-30T06:56:55.045Z,15.44
2022-07-30T07:06:56.191Z,15.44
2022-07-30T07:16:55.495Z,15.86
2022-07-30T07:26:55.545Z,15.66
2022-07-30T07:36:55.800Z,15.66
2022-07-30T07:46:56.061Z,14.69
2022-07-30T07:56:57.303Z,15.66
2022-07-30T08:06:56.546Z,15.47
2022-07-30T08:16:56.842Z,16.04
2022-07-30T08:26:56.925Z,15.64
2022-07-30T08:36:57.188Z,15.64
2022-07-30T08:46:57.409Z,15.64
2022-07-30T08:56:57.695Z,15.54
2022-07-30T09:06:57.787Z,16.72
2022-07-30T09:16:57.892Z,15.76
2022-07-30T09:26:57.933Z,16.50
2022-07-30T09:36:58.213Z,16.77
2022-07-30T09:46:58.505Z,16.77
2022-07-30T09:57:01.904Z,16.77
2022-07-30T10:06:58.655Z,17.68
2022-07-30T10:16:58.787Z,17.96
2022-07-30T10:26:59.235Z,16.30
2022-07-30T10:36:59.186Z,17.46
2022-07-30T10:46:59.572Z,17.71
2022-07-30T10:57:00.497Z,15.97
2022-07-30T11:06:59.414Z,16.54
2022-07-30T11:16:59.739Z,15.61
2022-07-30T11:27:00.407Z,15.69
2022-07-30T11:36:59.901Z,16.00
2022-07-30T11:47:00.227Z,15.04
2022-07-30T11:57:04.373Z,16.30
2022-07-30T12:07:00.673Z,16.06
2022-07-30T12:17:00.963Z,16.52
2022-07-30T12:27:01.130Z,17.49
2022-07-30T12:37:01.321Z,17.00
2022-07-30T12:47:01.560Z,17.01
2022-07-30T12:57:01.992Z,16.27
2022-07-30T13:07:01.897Z,16.01
2022-07-30T13:17:02.140Z,14.68
2022-07-30T13:27:02.145Z,13.19
2022-07-30T13:37:02.418Z,14.02
2022-07-30T13:47:02.438Z,15.07
2022-07-30T13:57:02.711Z,14.40
2022-07-30T14:07:02.957Z,14.95
2022-07-30T14:17:03.263Z,12.62
2022-07-30T14:27:03.513Z,13.22
2022-07-30T14:37:03.540Z,12.57
2022-07-30T14:47:03.842Z,11.90
2022-07-30T14:57:03.958Z,11.90
2022-07-30T15:07:03.819Z,13.48
2022-07-30T15:17:04.649Z,13.22
2022-07-30T15:27:04.150Z,12.45
2022-07-30T15:37:05.433Z,12.80
2022-07-30T15:47:04.735Z,12.80
2022-07-30T15:57:04.889Z,13.81
2022-07-30T16:07:05.261Z,12.57
2022-07-30T16:17:05.190Z,14.16
2022-07-30T16:27:05.264Z,14.46
2022-07-30T16:37:05.478Z,13.83
2022-07-30T16:47:05.647Z,13.83
2022-07-30T16:57:08.336Z,14.40
2022-07-30T17:07:06.858Z,14.02
2022-07-30T17:17:07.218Z,14.29
2022-07-30T17:27:06.149Z,14.81
2022-07-30T17:37:06.253Z,15.07
2022-07-30T17:47:08.004Z,14.38
2022-07-30T17:57:07.451Z,14.63
2022-07-30T18:07:06.751Z,14.87
2022-07-30T18:17:09.046Z,14.87
2022-07-30T18:27:07.706Z,14.63
2022-07-30T18:37:06.766Z,14.87
2022-07-30T18:47:07.055Z,14.63
2022-07-30T18:57:10.116Z,14.63
2022-07-30T19:07:08.355Z,14.63
2022-07-30T19:17:14.176Z,14.38
2022-07-30T19:27:13.707Z,13.93
2022-07-30T19:37:09.076Z,13.93
2022-07-30T19:47:08.309Z,13.44
2022-07-30T19:57:08.537Z,13.68
2022-07-30T20:07:08.754Z,13.68
2022-07-30T20:17:13.114Z,13.68
2022-07-30T20:27:36.275Z,13.68
2022-07-30T20:47:10.229Z,14.17
2022-07-30T20:57:15.809Z,13.22
2022-07-30T21:07:10.637Z,13.22
2022-07-30T21:17:09.946Z,13.22
2022-07-30T21:27:10.085Z,13.22
2022-07-30T21:37:10.417Z,13.22
2022-07-30T21:47:10.852Z,12.98
2022-07-30T21:57:11.587Z,13.45
2022-07-30T22:07:10.815Z,13.45
2022-07-30T22:17:19.253Z,13.68
2022-07-30T22:27:14.702Z,13.68
2022-07-30T22:37:12.902Z,13.45
2022-07-30T22:47:21.828Z,13.68
2022-07-30T22:57:14.847Z,12.73
2022-07-30T23:07:13.994Z,12.96
2022-07-30T23:12:18.962Z,13.68
2022-07-30T23:17:12.961Z,12.96
2022-07-30T23:27:13.249Z,12.96
2022-07-30T23:37:14.760Z,12.96
2022-07-30T23:47:12.773Z,12.96
2022-07-30T23:57:12.616Z,13.18
